sensor_id;sensor_type;location;lat;lon;timestamp;temperature;humidity
54516;DHT22;40422;45.892;4.738;2023-09-19T03:02:13;18.00;99.90
54516;DHT22;40422;45.892;4.738;2023-09-19T03:04:40;18.00;99.90
54516;DHT22;40422;45.892;4.738;2023-09-19T03:07:05;18.00;99.90
54516;DHT22;40422;45.892;4.738;2023-09-19T03:09:31;18.00;99.90
54516;DHT22;40422;45.892;4.738;2023-09-19T03:11:57;18.00;99.90
54516;DHT22;40422;45.892;4.738;2023-09-19T03:14:22;18.00;99.90
54516;DHT22;40422;45.892;4.738;2023-09-19T03:16:49;18.00;99.90
54516;DHT22;40422;45.892;4.738;2023-09-19T03:19:14;18.00;99.90
54516;DHT22;40422;45.892;4.738;2023-09-19T03:21:40;18.00;99.90
54516;DHT22;40422;45.892;4.738;2023-09-19T03:24:06;18.00;99.90
54516;DHT22;40422;45.892;4.738;2023-09-19T03:26:32;18.00;99.90
54516;DHT22;40422;45.892;4.738;2023-09-19T03:28:58;18.00;99.90
54516;DHT22;40422;45.892;4.738;2023-09-19T03:31:24;18.00;99.90
54516;DHT22;40422;45.892;4.738;2023-09-19T03:33:49;18.00;99.90
54516;DHT22;40422;45.892;4.738;2023-09-19T03:36:15;18.00;99.90
54516;DHT22;40422;45.892;4.738;2023-09-19T03:38:41;17.90;99.90
54516;DHT22;40422;45.892;4.738;2023-09-19T03:41:06;17.90;99.90
54516;DHT22;40422;45.892;4.738;2023-09-19T03:43:32;17.90;99.90
54516;DHT22;40422;45.892;4.738;2023-09-19T03:46:01;17.80;99.90
54516;DHT22;40422;45.892;4.738;2023-09-19T03:48:29;17.80;99.90
54516;DHT22;40422;45.892;4.738;2023-09-19T03:50:55;17.80;99.90
54516;DHT22;40422;45.892;4.738;2023-09-19T03:53:22;17.80;99.90
54516;DHT22;40422;45.892;4.738;2023-09-19T03:55:47;17.90;99.90
54516;DHT22;40422;45.892;4.738;2023-09-19T03:58:13;17.90;99.90
54516;DHT22;40422;45.892;4.738;2023-09-19T04:00:39;17.90;99.90
54516;DHT22;40422;45.892;4.738;2023-09-19T04:03:04;17.90;99.90
54516;DHT22;40422;45.892;4.738;2023-09-19T04:05:31;17.90;99.90
54516;DHT22;40422;45.892;4.738;2023-09-19T04:07:58;17.90;99.90
54516;DHT22;40422;45.892;4.738;2023-09-19T04:10:23;17.80;99.90
54516;DHT22;40422;45.892;4.738;2023-09-19T04:12:53;17.80;99.90
54516;DHT22;40422;45.892;4.738;2023-09-19T04:15:19;17.80;99.90
54516;DHT22;40422;45.892;4.738;2023-09-19T04:17:44;17.80;99.90
54516;DHT22;40422;45.892;4.738;2023-09-19T04:20:10;17.80;99.90
54516;DHT22;40422;45.892;4.738;2023-09-19T04:22:38;17.80;99.90
54516;DHT22;40422;45.892;4.738;2023-09-19T04:25:04;17.80;99.90
54516;DHT22;40422;45.892;4.738;2023-09-19T04:27:32;17.80;99.90
54516;DHT22;40422;45.892;4.738;2023-09-19T04:29:57;17.80;99.90
54516;DHT22;40422;45.892;4.738;2023-09-19T04:32:28;17.80;99.90
54516;DHT22;40422;45.892;4.738;2023-09-19T04:34:53;17.80;99.90
54516;DHT22;40422;45.892;4.738;2023-09-19T04:37:19;17.90;99.90
54516;DHT22;40422;45.892;4.738;2023-09-19T04:39:45;17.80;99.90
54516;DHT22;40422;45.892;4.738;2023-09-19T04:42:13;17.90;99.90
54516;DHT22;40422;45.892;4.738;2023-09-19T04:44:39;17.90;99.90
54516;DHT22;40422;45.892;4.738;2023-09-19T04:47:05;18.00;99.90
54516;DHT22;40422;45.892;4.738;2023-09-19T04:49:31;18.00;99.90
54516;DHT22;40422;45.892;4.738;2023-09-19T04:51:57;18.00;99.90
54516;DHT22;40422;45.892;4.738;2023-09-19T04:54:22;18.00;99.90
54516;DHT22;40422;45.892;4.738;2023-09-19T04:56:48;18.00;99.90
54516;DHT22;40422;45.892;4.738;2023-09-19T04:59:14;18.10;99.90
54516;DHT22;40422;45.892;4.738;2023-09-19T05:01:40;18.10;99.90
54516;DHT22;40422;45.892;4.738;2023-09-19T05:04:06;18.10;99.90
54516;DHT22;40422;45.892;4.738;2023-09-19T05:06:31;18.10;99.90
54516;DHT22;40422;45.892;4.738;2023-09-19T05:09:01;18.10;99.90
54516;DHT22;40422;45.892;4.738;2023-09-19T05:11:26;18.10;99.90
54516;DHT22;40422;45.892;4.738;2023-09-19T05:13:52;18.20;99.90
54516;DHT22;40422;45.892;4.738;2023-09-19T05:16:21;18.20;99.90
54516;DHT22;40422;45.892;4.738;2023-09-19T05:18:47;18.20;99.90
54516;DHT22;40422;45.892;4.738;2023-09-19T05:21:13;18.10;99.90
54516;DHT22;40422;45.892;4.738;2023-09-19T05:23:38;18.10;99.90
54516;DHT22;40422;45.892;4.738;2023-09-19T05:26:04;18.00;99.90
54516;DHT22;40422;45.892;4.738;2023-09-19T05:28:30;18.00;99.90
54516;DHT22;40422;45.892;4.738;2023-09-19T05:31:00;18.00;99.90
54516;DHT22;40422;45.892;4.738;2023-09-19T05:33:27;18.10;99.90
54516;DHT22;40422;45.892;4.738;2023-09-19T05:35:52;18.10;99.90
54516;DHT22;40422;45.892;4.738;2023-09-19T05:38:19;18.10;99.90
54516;DHT22;40422;45.892;4.738;2023-09-19T05:40:46;18.20;99.90
54516;DHT22;40422;45.892;4.738;2023-09-19T05:43:11;18.30;99.90
54516;DHT22;40422;45.892;4.738;2023-09-19T05:45:37;18.30;99.90
54516;DHT22;40422;45.892;4.738;2023-09-19T05:48:11;18.30;99.90
54516;DHT22;40422;45.892;4.738;2023-09-19T05:50:38;18.30;99.90
54516;DHT22;40422;45.892;4.738;2023-09-19T05:53:04;18.40;99.90
54516;DHT22;40422;45.892;4.738;2023-09-19T05:55:30;18.40;99.90
54516;DHT22;40422;45.892;4.738;2023-09-19T05:57:56;18.40;99.90
54516;DHT22;40422;45.892;4.738;2023-09-19T06:00:22;18.40;99.90
54516;DHT22;40422;45.892;4.738;2023-09-19T06:02:58;18.40;99.90
54516;DHT22;40422;45.892;4.738;2023-09-19T06:05:25;18.50;99.90
54516;DHT22;40422;45.892;4.738;2023-09-19T06:07:53;18.60;99.90
54516;DHT22;40422;45.892;4.738;2023-09-19T06:10:19;18.80;99.90
54516;DHT22;40422;45.892;4.738;2023-09-19T06:12:48;18.90;99.90
54516;DHT22;40422;45.892;4.738;2023-09-19T06:15:15;19.10;99.90
54516;DHT22;40422;45.892;4.738;2023-09-19T06:17:46;19.20;99.90
54516;DHT22;40422;45.892;4.738;2023-09-19T06:20:12;19.30;99.90
54516;DHT22;40422;45.892;4.738;2023-09-19T06:22:40;19.40;99.90
54516;DHT22;40422;45.892;4.738;2023-09-19T06:25:07;19.50;99.90
54516;DHT22;40422;45.892;4.738;2023-09-19T06:27:33;19.60;99.90
54516;DHT22;40422;45.892;4.738;2023-09-19T06:30:01;19.70;99.90
54516;DHT22;40422;45.892;4.738;2023-09-19T06:32:28;19.70;99.90
54516;DHT22;40422;45.892;4.738;2023-09-19T06:34:54;19.80;99.90
54516;DHT22;40422;45.892;4.738;2023-09-19T06:37:20;19.80;99.90
54516;DHT22;40422;45.892;4.738;2023-09-19T06:39:47;19.90;99.90
54516;DHT22;40422;45.892;4.738;2023-09-19T06:42:15;19.90;99.90
54516;DHT22;40422;45.892;4.738;2023-09-19T06:44:42;19.90;99.90
54516;DHT22;40422;45.892;4.738;2023-09-19T06:47:08;19.90;99.90
54516;DHT22;40422;45.892;4.738;2023-09-19T06:49:35;20.00;99.90
54516;DHT22;40422;45.892;4.738;2023-09-19T06:52:01;20.10;99.90
54516;DHT22;40422;45.892;4.738;2023-09-19T06:54:28;20.10;99.90
54516;DHT22;40422;45.892;4.738;2023-09-19T06:56:57;20.20;99.90
54516;DHT22;40422;45.892;4.738;2023-09-19T06:59:24;20.20;99.90
54516;DHT22;40422;45.892;4.738;2023-09-19T07:01:50;20.30;99.90
54516;DHT22;40422;45.892;4.738;2023-09-19T07:04:16;20.40;99.90
54516;DHT22;40422;45.892;4.738;2023-09-19T07:06:42;20.40;99.90
54516;DHT22;40422;45.892;4.738;2023-09-19T07:09:08;20.50;99.90
54516;DHT22;40422;45.892;4.738;2023-09-19T07:11:34;20.40;99.90
54516;DHT22;40422;45.892;4.738;2023-09-19T07:14:00;20.30;99.90
54516;DHT22;40422;45.892;4.738;2023-09-19T07:16:28;20.20;99.90
54516;DHT22;40422;45.892;4.738;2023-09-19T07:18:56;20.30;99.90
54516;DHT22;40422;45.892;4.738;2023-09-19T07:21:23;20.30;99.90
54516;DHT22;40422;45.892;4.738;2023-09-19T07:23:49;20.30;99.90
54516;DHT22;40422;45.892;4.738;2023-09-19T07:26:15;20.40;99.90
54516;DHT22;40422;45.892;4.738;2023-09-19T07:28:41;20.40;99.90
54516;DHT22;40422;45.892;4.738;2023-09-19T07:31:08;20.40;99.90
54516;DHT22;40422;45.892;4.738;2023-09-19T07:33:35;20.50;99.90
54516;DHT22;40422;45.892;4.738;2023-09-19T07:36:01;20.40;99.90
54516;DHT22;40422;45.892;4.738;2023-09-19T07:38:27;20.30;99.90
54516;DHT22;40422;45.892;4.738;2023-09-19T07:40:53;20.30;99.90
54516;DHT22;40422;45.892;4.738;2023-09-19T07:43:18;20.30;99.90
54516;DHT22;40422;45.892;4.738;2023-09-19T07:45:44;20.20;99.90
54516;DHT22;40422;45.892;4.738;2023-09-19T07:48:10;20.20;99.90
54516;DHT22;40422;45.892;4.738;2023-09-19T07:50:40;20.30;99.90
54516;DHT22;40422;45.892;4.738;2023-09-19T07:53:08;20.50;99.90
54516;DHT22;40422;45.892;4.738;2023-09-19T07:55:34;20.60;99.90
54516;DHT22;40422;45.892;4.738;2023-09-19T07:57:59;20.60;99.90
54516;DHT22;40422;45.892;4.738;2023-09-19T08:00:26;20.70;99.90
54516;DHT22;40422;45.892;4.738;2023-09-19T08:02:51;20.80;99.90
54516;DHT22;40422;45.892;4.738;2023-09-19T08:05:17;20.80;99.90
54516;DHT22;40422;45.892;4.738;2023-09-19T08:07:45;20.70;99.90
54516;DHT22;40422;45.892;4.738;2023-09-19T08:10:17;20.80;99.90
54516;DHT22;40422;45.892;4.738;2023-09-19T08:12:47;20.70;99.90
54516;DHT22;40422;45.892;4.738;2023-09-19T08:15:18;20.70;99.90
54516;DHT22;40422;45.892;4.738;2023-09-19T08:17:47;20.60;99.90
54516;DHT22;40422;45.892;4.738;2023-09-19T08:20:13;20.70;99.90
54516;DHT22;40422;45.892;4.738;2023-09-19T08:22:49;20.80;99.90
54516;DHT22;40422;45.892;4.738;2023-09-19T08:25:18;20.80;99.90
54516;DHT22;40422;45.892;4.738;2023-09-19T08:27:47;20.90;99.90
54516;DHT22;40422;45.892;4.738;2023-09-19T08:30:20;20.90;99.90
54516;DHT22;40422;45.892;4.738;2023-09-19T08:32:50;21.00;99.90
54516;DHT22;40422;45.892;4.738;2023-09-19T08:35:15;21.00;99.90
54516;DHT22;40422;45.892;4.738;2023-09-19T08:37:42;21.10;99.90
54516;DHT22;40422;45.892;4.738;2023-09-19T08:40:10;21.30;99.90
54516;DHT22;40422;45.892;4.738;2023-09-19T08:42:48;21.30;99.90
54516;DHT22;40422;45.892;4.738;2023-09-19T08:45:15;21.40;99.90
54516;DHT22;40422;45.892;4.738;2023-09-19T08:47:46;21.50;99.90
54516;DHT22;40422;45.892;4.738;2023-09-19T08:50:19;21.70;99.90
54516;DHT22;40422;45.892;4.738;2023-09-19T08:52:51;21.70;99.90
54516;DHT22;40422;45.892;4.738;2023-09-19T08:55:23;21.90;99.90
54516;DHT22;40422;45.892;4.738;2023-09-19T08:57:52;22.00;99.90
54516;DHT22;40422;45.892;4.738;2023-09-19T09:00:27;22.00;99.90
54516;DHT22;40422;45.892;4.738;2023-09-19T09:02:55;22.00;99.90
54516;DHT22;40422;45.892;4.738;2023-09-19T09:05:22;22.00;99.90
54516;DHT22;40422;45.892;4.738;2023-09-19T09:07:51;22.00;99.90
54516;DHT22;40422;45.892;4.738;2023-09-19T09:10:18;22.10;99.90
54516;DHT22;40422;45.892;4.738;2023-09-19T09:12:51;22.20;99.90
54516;DHT22;40422;45.892;4.738;2023-09-19T09:15:18;22.40;99.90
54516;DHT22;40422;45.892;4.738;2023-09-19T09:17:47;22.50;99.90
54516;DHT22;40422;45.892;4.738;2023-09-19T09:20:14;22.70;99.90
54516;DHT22;40422;45.892;4.738;2023-09-19T09:22:54;22.90;99.90
54516;DHT22;40422;45.892;4.738;2023-09-19T09:25:22;23.10;99.90
54516;DHT22;40422;45.892;4.738;2023-09-19T09:28:01;23.40;99.90
54516;DHT22;40422;45.892;4.738;2023-09-19T09:30:34;23.50;99.90
54516;DHT22;40422;45.892;4.738;2023-09-19T09:33:13;23.70;99.90
54516;DHT22;40422;45.892;4.738;2023-09-19T09:35:59;23.80;99.90
54516;DHT22;40422;45.892;4.738;2023-09-19T09:38:28;23.90;99.90
54516;DHT22;40422;45.892;4.738;2023-09-19T09:40:58;23.90;99.90
54516;DHT22;40422;45.892;4.738;2023-09-19T09:43:38;24.00;99.90
54516;DHT22;40422;45.892;4.738;2023-09-19T09:46:19;24.10;99.90
54516;DHT22;40422;45.892;4.738;2023-09-19T09:51:44;24.30;99.90
54516;DHT22;40422;45.892;4.738;2023-09-19T09:54:18;24.30;99.90
54516;DHT22;40422;45.892;4.738;2023-09-19T09:56:59;24.50;99.90
54516;DHT22;40422;45.892;4.738;2023-09-19T09:59:48;24.60;99.90
54516;DHT22;40422;45.892;4.738;2023-09-19T10:02:17;24.70;99.90
54516;DHT22;40422;45.892;4.738;2023-09-19T10:04:51;24.70;99.60
54516;DHT22;40422;45.892;4.738;2023-09-19T10:07:35;24.70;98.20
54516;DHT22;40422;45.892;4.738;2023-09-19T10:10:04;24.70;97.50
54516;DHT22;40422;45.892;4.738;2023-09-19T10:12:44;24.70;97.30
54516;DHT22;40422;45.892;4.738;2023-09-19T10:15:11;24.70;99.10
54516;DHT22;40422;45.892;4.738;2023-09-19T10:17:44;24.90;99.10
54516;DHT22;40422;45.892;4.738;2023-09-19T10:20:13;25.10;98.30
54516;DHT22;40422;45.892;4.738;2023-09-19T10:22:59;25.40;97.00
54516;DHT22;40422;45.892;4.738;2023-09-19T10:25:26;25.70;96.30
54516;DHT22;40422;45.892;4.738;2023-09-19T10:27:54;25.90;96.20
54516;DHT22;40422;45.892;4.738;2023-09-19T10:30:22;25.90;94.50
54516;DHT22;40422;45.892;4.738;2023-09-19T10:32:59;25.80;95.70
54516;DHT22;40422;45.892;4.738;2023-09-19T10:35:26;26.00;94.40
54516;DHT22;40422;45.892;4.738;2023-09-19T10:37:55;26.20;94.60
54516;DHT22;40422;45.892;4.738;2023-09-19T10:40:22;26.40;93.70
54516;DHT22;40422;45.892;4.738;2023-09-19T10:43:01;26.70;92.60
54516;DHT22;40422;45.892;4.738;2023-09-19T10:45:34;27.00;92.70
54516;DHT22;40422;45.892;4.738;2023-09-19T10:48:01;27.20;92.60
54516;DHT22;40422;45.892;4.738;2023-09-19T10:50:31;27.40;91.60
54516;DHT22;40422;45.892;4.738;2023-09-19T10:53:00;27.40;91.30
54516;DHT22;40422;45.892;4.738;2023-09-19T10:55:31;27.20;91.60
54516;DHT22;40422;45.892;4.738;2023-09-19T10:57:58;27.00;90.80
54516;DHT22;40422;45.892;4.738;2023-09-19T11:00:53;26.80;91.70
54516;DHT22;40422;45.892;4.738;2023-09-19T11:03:19;26.70;90.70
54516;DHT22;40422;45.892;4.738;2023-09-19T11:11:41;26.20;90.80
54516;DHT22;40422;45.892;4.738;2023-09-19T11:30:36;26.80;89.40
54516;DHT22;40422;45.892;4.738;2023-09-19T11:43:52;28.50;85.20
54516;DHT22;40422;45.892;4.738;2023-09-19T11:46:20;28.80;85.00
54516;DHT22;40422;45.892;4.738;2023-09-19T11:48:49;29.00;83.90
54516;DHT22;40422;45.892;4.738;2023-09-19T11:53:48;29.80;82.30
54516;DHT22;40422;45.892;4.738;2023-09-19T11:56:19;29.80;81.00
54516;DHT22;40422;45.892;4.738;2023-09-19T11:58:46;29.90;80.60
54516;DHT22;40422;45.892;4.738;2023-09-19T12:01:21;29.80;78.70
54516;DHT22;40422;45.892;4.738;2023-09-19T12:03:47;29.30;80.10
54516;DHT22;40422;45.892;4.738;2023-09-19T12:06:18;29.30;78.80
54516;DHT22;40422;45.892;4.738;2023-09-19T12:08:44;29.50;80.50
54516;DHT22;40422;45.892;4.738;2023-09-19T12:11:16;29.90;80.20
54516;DHT22;40422;45.892;4.738;2023-09-19T12:13:44;30.10;77.30
54516;DHT22;40422;45.892;4.738;2023-09-19T12:16:17;29.80;77.70
54516;DHT22;40422;45.892;4.738;2023-09-19T12:18:44;29.50;79.80
54516;DHT22;40422;45.892;4.738;2023-09-19T12:21:30;29.60;78.60
54516;DHT22;40422;45.892;4.738;2023-09-19T12:24:03;29.90;79.00
54516;DHT22;40422;45.892;4.738;2023-09-19T12:26:40;30.00;77.90
54516;DHT22;40422;45.892;4.738;2023-09-19T12:29:18;30.20;79.30
54516;DHT22;40422;45.892;4.738;2023-09-19T12:31:52;30.40;77.00
54516;DHT22;40422;45.892;4.738;2023-09-19T12:34:23;30.70;76.90
54516;DHT22;40422;45.892;4.738;2023-09-19T12:36:49;30.70;75.80
54516;DHT22;40422;45.892;4.738;2023-09-19T12:39:24;30.80;76.90
54516;DHT22;40422;45.892;4.738;2023-09-19T12:41:55;30.50;74.20
54516;DHT22;40422;45.892;4.738;2023-09-19T12:44:21;30.40;74.90
54516;DHT22;40422;45.892;4.738;2023-09-19T12:46:46;30.50;76.70
54516;DHT22;40422;45.892;4.738;2023-09-19T12:49:16;30.60;76.80
54516;DHT22;40422;45.892;4.738;2023-09-19T12:51:48;30.90;74.90
54516;DHT22;40422;45.892;4.738;2023-09-19T12:54:15;31.10;74.10
54516;DHT22;40422;45.892;4.738;2023-09-19T12:56:44;30.80;72.00
54516;DHT22;40422;45.892;4.738;2023-09-19T12:59:12;30.50;73.20
54516;DHT22;40422;45.892;4.738;2023-09-19T13:01:39;30.60;72.00
54516;DHT22;40422;45.892;4.738;2023-09-19T13:04:20;30.50;72.90
54516;DHT22;40422;45.892;4.738;2023-09-19T13:06:46;30.30;71.80
54516;DHT22;40422;45.892;4.738;2023-09-19T13:09:15;30.30;72.80
54516;DHT22;40422;45.892;4.738;2023-09-19T13:11:42;30.30;71.80
54516;DHT22;40422;45.892;4.738;2023-09-19T13:14:26;30.00;72.50
54516;DHT22;40422;45.892;4.738;2023-09-19T13:17:04;29.70;71.80
54516;DHT22;40422;45.892;4.738;2023-09-19T13:19:35;29.70;73.40
54516;DHT22;40422;45.892;4.738;2023-09-19T13:22:01;29.90;72.90
54516;DHT22;40422;45.892;4.738;2023-09-19T13:24:28;29.50;72.30
54516;DHT22;40422;45.892;4.738;2023-09-19T13:26:55;29.50;73.50
54516;DHT22;40422;45.892;4.738;2023-09-19T13:29:21;29.70;72.20
54516;DHT22;40422;45.892;4.738;2023-09-19T13:31:48;30.00;71.10
54516;DHT22;40422;45.892;4.738;2023-09-19T13:34:15;29.90;71.40
54516;DHT22;40422;45.892;4.738;2023-09-19T13:36:44;29.50;71.20
54516;DHT22;40422;45.892;4.738;2023-09-19T13:39:10;29.80;71.10
54516;DHT22;40422;45.892;4.738;2023-09-19T13:41:38;30.10;71.30
54516;DHT22;40422;45.892;4.738;2023-09-19T13:44:04;30.30;70.40
54516;DHT22;40422;45.892;4.738;2023-09-19T13:46:30;30.60;70.90
54516;DHT22;40422;45.892;4.738;2023-09-19T13:48:58;30.90;69.70
54516;DHT22;40422;45.892;4.738;2023-09-19T13:51:26;31.30;70.80
54516;DHT22;40422;45.892;4.738;2023-09-19T13:53:51;31.60;68.70
54516;DHT22;40422;45.892;4.738;2023-09-19T13:56:17;31.70;67.10
54516;DHT22;40422;45.892;4.738;2023-09-19T13:58:42;31.80;67.20
54516;DHT22;40422;45.892;4.738;2023-09-19T14:01:09;31.80;67.30
54516;DHT22;40422;45.892;4.738;2023-09-19T14:03:39;31.50;66.40
54516;DHT22;40422;45.892;4.738;2023-09-19T14:06:05;31.20;67.50
54516;DHT22;40422;45.892;4.738;2023-09-19T14:08:31;31.00;67.60
54516;DHT22;40422;45.892;4.738;2023-09-19T14:10:58;30.80;67.40
54516;DHT22;40422;45.892;4.738;2023-09-19T14:13:24;30.20;67.60
54516;DHT22;40422;45.892;4.738;2023-09-19T14:15:52;30.10;67.00
54516;DHT22;40422;45.892;4.738;2023-09-19T14:18:20;30.30;67.40
54516;DHT22;40422;45.892;4.738;2023-09-19T14:20:47;30.60;67.10
54516;DHT22;40422;45.892;4.738;2023-09-19T14:23:12;30.70;66.80
54516;DHT22;40422;45.892;4.738;2023-09-19T14:25:38;30.30;67.00
54516;DHT22;40422;45.892;4.738;2023-09-19T14:28:04;30.10;67.80
54516;DHT22;40422;45.892;4.738;2023-09-19T14:30:32;30.30;68.00
54516;DHT22;40422;45.892;4.738;2023-09-19T14:32:57;30.10;67.30
54516;DHT22;40422;45.892;4.738;2023-09-19T14:35:24;29.90;68.20
54516;DHT22;40422;45.892;4.738;2023-09-19T14:37:49;30.00;68.80
54516;DHT22;40422;45.892;4.738;2023-09-19T14:40:15;29.80;68.70
54516;DHT22;40422;45.892;4.738;2023-09-19T14:42:43;29.70;68.00
54516;DHT22;40422;45.892;4.738;2023-09-19T14:45:10;29.30;68.70
54516;DHT22;40422;45.892;4.738;2023-09-19T14:47:37;28.80;69.60
54516;DHT22;40422;45.892;4.738;2023-09-19T14:50:03;28.70;69.80
54516;DHT22;40422;45.892;4.738;2023-09-19T14:52:32;28.70;68.90
54516;DHT22;40422;45.892;4.738;2023-09-19T14:54:59;28.60;70.20
54516;DHT22;40422;45.892;4.738;2023-09-19T14:57:27;28.90;69.70
54516;DHT22;40422;45.892;4.738;2023-09-19T14:59:52;28.90;67.90
54516;DHT22;40422;45.892;4.738;2023-09-19T15:02:18;28.90;70.20
54516;DHT22;40422;45.892;4.738;2023-09-19T15:04:44;28.90;69.50
54516;DHT22;40422;45.892;4.738;2023-09-19T15:07:12;28.90;68.90
54516;DHT22;40422;45.892;4.738;2023-09-19T15:09:41;28.90;69.50
54516;DHT22;40422;45.892;4.738;2023-09-19T15:12:07;28.60;71.60
54516;DHT22;40422;45.892;4.738;2023-09-19T15:14:34;28.30;73.10
54516;DHT22;40422;45.892;4.738;2023-09-19T15:16:59;28.10;72.50
54516;DHT22;40422;45.892;4.738;2023-09-19T15:19:25;28.10;73.90
54516;DHT22;40422;45.892;4.738;2023-09-19T15:21:50;28.50;73.60
54516;DHT22;40422;45.892;4.738;2023-09-19T15:24:16;29.00;72.60
54516;DHT22;40422;45.892;4.738;2023-09-19T15:26:42;29.20;71.70
54516;DHT22;40422;45.892;4.738;2023-09-19T15:29:10;29.10;71.70
54516;DHT22;40422;45.892;4.738;2023-09-19T15:31:36;29.00;71.90
54516;DHT22;40422;45.892;4.738;2023-09-19T15:34:05;29.20;72.00
54516;DHT22;40422;45.892;4.738;2023-09-19T15:36:32;29.30;72.10
54516;DHT22;40422;45.892;4.738;2023-09-19T15:41:27;29.60;71.90
54516;DHT22;40422;45.892;4.738;2023-09-19T15:43:54;29.70;71.80
54516;DHT22;40422;45.892;4.738;2023-09-19T15:46:20;29.80;71.50
54516;DHT22;40422;45.892;4.738;2023-09-19T15:48:46;30.10;70.70
54516;DHT22;40422;45.892;4.738;2023-09-19T15:51:12;30.30;70.60
54516;DHT22;40422;45.892;4.738;2023-09-19T15:53:45;30.60;69.40
54516;DHT22;40422;45.892;4.738;2023-09-19T15:56:11;30.80;69.40
54516;DHT22;40422;45.892;4.738;2023-09-19T15:58:37;30.90;69.20
54516;DHT22;40422;45.892;4.738;2023-09-19T16:01:07;31.00;68.50
54516;DHT22;40422;45.892;4.738;2023-09-19T16:03:41;31.10;67.30
54516;DHT22;40422;45.892;4.738;2023-09-19T16:06:13;31.00;68.60
54516;DHT22;40422;45.892;4.738;2023-09-19T16:08:46;31.00;68.50
54516;DHT22;40422;45.892;4.738;2023-09-19T16:11:16;31.00;67.70
54516;DHT22;40422;45.892;4.738;2023-09-19T16:13:42;31.10;67.60
54516;DHT22;40422;45.892;4.738;2023-09-19T16:16:09;31.10;67.20
54516;DHT22;40422;45.892;4.738;2023-09-19T16:18:54;31.10;67.50
54516;DHT22;40422;45.892;4.738;2023-09-19T16:21:32;31.00;68.00
54516;DHT22;40422;45.892;4.738;2023-09-19T16:24:00;30.90;68.30
54516;DHT22;40422;45.892;4.738;2023-09-19T16:26:27;30.70;67.90
54516;DHT22;40422;45.892;4.738;2023-09-19T16:28:55;30.70;68.40
54516;DHT22;40422;45.892;4.738;2023-09-19T16:31:26;30.70;68.00
54516;DHT22;40422;45.892;4.738;2023-09-19T16:33:53;30.70;67.90
54516;DHT22;40422;45.892;4.738;2023-09-19T16:36:20;30.60;67.50
54516;DHT22;40422;45.892;4.738;2023-09-19T16:38:47;30.50;67.90
54516;DHT22;40422;45.892;4.738;2023-09-19T16:41:13;30.50;68.40
54516;DHT22;40422;45.892;4.738;2023-09-19T16:43:39;30.50;67.60
54516;DHT22;40422;45.892;4.738;2023-09-19T16:46:07;30.40;68.20
54516;DHT22;40422;45.892;4.738;2023-09-19T16:48:42;30.30;69.20
54516;DHT22;40422;45.892;4.738;2023-09-19T16:51:10;30.10;69.00
54516;DHT22;40422;45.892;4.738;2023-09-19T16:53:37;30.10;69.00
54516;DHT22;40422;45.892;4.738;2023-09-19T16:56:08;29.90;69.50
54516;DHT22;40422;45.892;4.738;2023-09-19T16:58:37;29.70;69.50
54516;DHT22;40422;45.892;4.738;2023-09-19T17:01:06;29.50;70.00
54516;DHT22;40422;45.892;4.738;2023-09-19T17:03:35;29.50;69.90
54516;DHT22;40422;45.892;4.738;2023-09-19T17:06:01;29.50;69.60
54516;DHT22;40422;45.892;4.738;2023-09-19T17:08:28;29.50;70.10
54516;DHT22;40422;45.892;4.738;2023-09-19T17:11:10;29.40;71.20
54516;DHT22;40422;45.892;4.738;2023-09-19T17:13:41;29.40;71.00
54516;DHT22;40422;45.892;4.738;2023-09-19T17:16:09;29.30;71.30
54516;DHT22;40422;45.892;4.738;2023-09-19T17:18:35;29.10;71.70
54516;DHT22;40422;45.892;4.738;2023-09-19T17:21:02;29.00;72.30
54516;DHT22;40422;45.892;4.738;2023-09-19T17:23:30;28.80;73.20
54516;DHT22;40422;45.892;4.738;2023-09-19T17:26:06;28.60;73.10
54516;DHT22;40422;45.892;4.738;2023-09-19T17:28:34;28.50;74.10
54516;DHT22;40422;45.892;4.738;2023-09-19T17:31:01;28.20;73.70
54516;DHT22;40422;45.892;4.738;2023-09-19T17:33:27;28.10;74.40
54516;DHT22;40422;45.892;4.738;2023-09-19T17:36:10;27.90;76.00
54516;DHT22;40422;45.892;4.738;2023-09-19T17:38:38;27.60;77.80
54516;DHT22;40422;45.892;4.738;2023-09-19T17:41:04;27.20;77.70
54516;DHT22;40422;45.892;4.738;2023-09-19T17:43:33;27.00;77.70
54516;DHT22;40422;45.892;4.738;2023-09-19T17:46:13;26.70;79.10
54516;DHT22;40422;45.892;4.738;2023-09-19T17:48:47;26.30;81.00
54516;DHT22;40422;45.892;4.738;2023-09-19T17:51:13;25.80;81.80
54516;DHT22;40422;45.892;4.738;2023-09-19T17:53:40;25.50;82.70
54516;DHT22;40422;45.892;4.738;2023-09-19T17:56:07;25.30;82.60
54516;DHT22;40422;45.892;4.738;2023-09-19T17:58:39;25.20;82.50
54516;DHT22;40422;45.892;4.738;2023-09-19T18:01:16;24.90;83.40
54516;DHT22;40422;45.892;4.738;2023-09-19T18:03:45;24.70;84.60
54516;DHT22;40422;45.892;4.738;2023-09-19T18:06:12;24.50;85.30
54516;DHT22;40422;45.892;4.738;2023-09-19T18:08:38;24.30;86.70
54516;DHT22;40422;45.892;4.738;2023-09-19T18:11:05;24.10;88.20
54516;DHT22;40422;45.892;4.738;2023-09-19T18:13:40;23.90;89.90
54516;DHT22;40422;45.892;4.738;2023-09-19T18:16:06;23.60;90.40
54516;DHT22;40422;45.892;4.738;2023-09-19T18:18:33;23.50;90.50
54516;DHT22;40422;45.892;4.738;2023-09-19T18:21:03;23.40;90.80
54516;DHT22;40422;45.892;4.738;2023-09-19T18:23:30;23.20;91.30
54516;DHT22;40422;45.892;4.738;2023-09-19T18:26:00;23.00;91.90
54516;DHT22;40422;45.892;4.738;2023-09-19T18:28:25;22.90;92.50
54516;DHT22;40422;45.892;4.738;2023-09-19T18:30:51;22.80;92.70
54516;DHT22;40422;45.892;4.738;2023-09-19T18:33:17;22.60;93.80
54516;DHT22;40422;45.892;4.738;2023-09-19T18:35:42;22.50;94.50
54516;DHT22;40422;45.892;4.738;2023-09-19T18:38:08;22.30;95.20
54516;DHT22;40422;45.892;4.738;2023-09-19T18:40:35;22.20;95.80
54516;DHT22;40422;45.892;4.738;2023-09-19T18:43:02;22.00;96.40
54516;DHT22;40422;45.892;4.738;2023-09-19T18:45:29;21.90;96.40
54516;DHT22;40422;45.892;4.738;2023-09-19T18:47:54;21.80;97.60
54516;DHT22;40422;45.892;4.738;2023-09-19T18:50:21;21.70;98.30
54516;DHT22;40422;45.892;4.738;2023-09-19T18:52:49;21.50;99.20
54516;DHT22;40422;45.892;4.738;2023-09-19T18:55:15;21.40;99.90
54516;DHT22;40422;45.892;4.738;2023-09-19T18:57:43;21.30;99.90
54516;DHT22;40422;45.892;4.738;2023-09-19T19:00:09;21.20;99.90
54516;DHT22;40422;45.892;4.738;2023-09-19T19:02:38;21.20;99.90
54516;DHT22;40422;45.892;4.738;2023-09-19T19:05:05;21.10;99.90
54516;DHT22;40422;45.892;4.738;2023-09-19T19:07:31;21.00;99.90
54516;DHT22;40422;45.892;4.738;2023-09-19T19:09:57;20.90;99.90
54516;DHT22;40422;45.892;4.738;2023-09-19T19:12:24;20.80;99.90
54516;DHT22;40422;45.892;4.738;2023-09-19T19:14:50;20.70;99.90
54516;DHT22;40422;45.892;4.738;2023-09-19T19:17:16;20.70;99.90
54516;DHT22;40422;45.892;4.738;2023-09-19T19:19:44;20.60;99.90